createdAt,value
2023-03-17T00:01:01.808Z,-2.17
2023-03-17T00:03:32.222Z,-2.26
2023-03-17T00:06:02.190Z,-2.23
2023-03-17T00:08:33.393Z,-2.11
2023-03-17T00:11:06.210Z,-2.06
2023-03-17T00:13:35.580Z,-1.99
2023-03-17T00:16:07.633Z,-2.03
2023-03-17T00:18:36.130Z,-2.14
2023-03-17T00:21:06.475Z,-2.24
2023-03-17T00:23:35.394Z,-2.23
2023-03-17T00:26:04.071Z,-2.20
2023-03-17T00:28:32.696Z,-2.24
2023-03-17T00:31:03.403Z,-2.30
2023-03-17T00:33:37.452Z,-2.31
2023-03-17T00:36:07.791Z,-2.17
2023-03-17T00:38:38.653Z,-2.21
2023-03-17T00:41:07.380Z,-2.26
2023-03-17T00:43:35.601Z,-2.30
2023-03-17T00:46:13.576Z,-2.30
2023-03-17T00:48:44.613Z,-2.21
2023-03-17T00:51:15.677Z,-2.24
2023-03-17T00:53:44.640Z,-2.36
2023-03-17T00:56:16.012Z,-2.48
2023-03-17T00:58:45.240Z,-2.30
2023-03-17T01:01:14.995Z,-2.49
2023-03-17T01:03:44.909Z,-2.59
2023-03-17T01:06:17.454Z,-2.76
2023-03-17T01:08:55.707Z,-2.83
2023-03-17T01:11:24.548Z,-2.73
2023-03-17T01:13:56.480Z,-2.80
2023-03-17T01:16:31.613Z,-2.87
2023-03-17T01:19:01.737Z,-2.86
2023-03-17T01:21:31.946Z,-2.70
2023-03-17T01:24:00.596Z,-2.75
2023-03-17T01:26:30.189Z,-2.79
2023-03-17T01:28:59.189Z,-2.78
2023-03-17T01:31:28.833Z,-2.85
2023-03-17T01:33:58.014Z,-2.87
2023-03-17T01:36:26.330Z,-2.86
2023-03-17T01:38:57.076Z,-2.90
2023-03-17T01:41:25.697Z,-2.99
2023-03-17T01:43:53.963Z,-2.87
2023-03-17T01:46:30.670Z,-2.95
2023-03-17T01:49:11.141Z,-3.04
2023-03-17T01:51:48.978Z,-3.01
2023-03-17T01:54:25.496Z,-2.96
2023-03-17T01:56:58.895Z,-2.90
2023-03-17T01:59:33.781Z,-3.00
2023-03-17T02:02:07.654Z,-3.11
2023-03-17T02:04:37.264Z,-2.99
2023-03-17T02:07:07.421Z,-3.03
2023-03-17T02:09:38.177Z,-3.07
2023-03-17T02:12:09.440Z,-3.08
2023-03-17T02:14:39.794Z,-3.08
2023-03-17T02:17:18.919Z,-2.99
2023-03-17T02:19:47.462Z,-3.04
2023-03-17T02:22:22.181Z,-3.16
2023-03-17T02:24:54.746Z,-3.28
2023-03-17T02:27:28.024Z,-3.31
2023-03-17T02:29:57.112Z,-3.27
2023-03-17T02:32:26.149Z,-3.30
2023-03-17T02:34:55.327Z,-3.38
2023-03-17T02:37:27.692Z,-3.40
2023-03-17T02:39:55.969Z,-3.31
2023-03-17T02:42:25.794Z,-3.27
2023-03-17T02:44:54.986Z,-3.35
2023-03-17T02:47:24.435Z,-3.37
2023-03-17T02:49:54.831Z,-3.30
2023-03-17T02:52:24.585Z,-3.40
2023-03-17T02:54:52.932Z,-3.34
2023-03-17T02:57:21.821Z,-3.31
2023-03-17T02:59:50.957Z,-3.31
2023-03-17T03:02:22.519Z,-3.38
2023-03-17T03:04:51.607Z,-3.44
2023-03-17T03:07:19.990Z,-3.47
2023-03-17T03:09:53.571Z,-3.51
2023-03-17T03:12:22.416Z,-3.48
2023-03-17T03:14:50.565Z,-3.52
2023-03-17T03:17:20.628Z,-3.59
2023-03-17T03:19:50.823Z,-3.59
2023-03-17T03:22:19.289Z,-3.62
2023-03-17T03:24:49.091Z,-3.51
2023-03-17T03:27:19.015Z,-3.59
2023-03-17T03:29:47.635Z,-3.66
2023-03-17T03:32:16.743Z,-3.66
2023-03-17T03:34:45.605Z,-3.71
2023-03-17T03:37:13.871Z,-3.71
2023-03-17T03:39:46.267Z,-3.71
2023-03-17T03:42:16.804Z,-3.68
2023-03-17T03:44:47.204Z,-3.62
2023-03-17T03:47:15.846Z,-3.68
2023-03-17T03:49:45.454Z,-3.74
2023-03-17T03:52:15.811Z,-3.76
2023-03-17T03:54:45.552Z,-3.78
2023-03-17T03:57:15.100Z,-3.69
2023-03-17T03:59:43.752Z,-3.81
2023-03-17T04:02:14.050Z,-3.85
2023-03-17T04:04:44.011Z,-3.83
2023-03-17T04:07:13.377Z,-3.89
2023-03-17T04:09:44.170Z,-3.92
2023-03-17T04:12:13.191Z,-3.95
2023-03-17T04:14:45.735Z,-3.99
2023-03-17T04:17:15.153Z,-3.97
2023-03-17T04:19:43.779Z,-3.95
2023-03-17T04:22:16.254Z,-3.92
2023-03-17T04:24:45.969Z,-3.95
2023-03-17T04:27:15.551Z,-3.79
2023-03-17T04:29:45.439Z,-3.93
2023-03-17T04:32:16.069Z,-4.00
2023-03-17T04:34:44.498Z,-4.02
2023-03-17T04:37:14.388Z,-4.10
2023-03-17T04:39:42.640Z,-4.10
2023-03-17T04:42:11.344Z,-4.09
2023-03-17T04:44:43.263Z,-4.11
2023-03-17T04:47:13.140Z,-4.10
2023-03-17T04:49:41.539Z,-4.17
2023-03-17T04:52:11.684Z,-4.24
2023-03-17T04:54:40.322Z,-4.14
2023-03-17T04:57:09.284Z,-4.11
2023-03-17T04:59:37.902Z,-4.10
2023-03-17T05:02:06.665Z,-4.11
2023-03-17T05:04:36.586Z,-4.13
2023-03-17T05:07:06.384Z,-4.10
2023-03-17T05:09:34.953Z,-4.10
2023-03-17T05:12:03.141Z,-4.11
2023-03-17T05:14:31.757Z,-4.07
2023-03-17T05:17:00.184Z,-4.11
2023-03-17T05:19:29.894Z,-4.06
2023-03-17T05:22:01.403Z,-4.09
2023-03-17T05:24:29.744Z,-4.02
2023-03-17T05:26:58.220Z,-4.03
2023-03-17T05:29:27.230Z,-4.02
2023-03-17T05:31:55.908Z,-3.97
2023-03-17T05:34:27.673Z,-3.87
2023-03-17T05:36:56.458Z,-3.83
2023-03-17T05:39:26.960Z,-3.75
2023-03-17T05:41:55.621Z,-3.71
2023-03-17T05:44:24.064Z,-3.66
2023-03-17T05:46:52.363Z,-3.58
2023-03-17T05:49:21.060Z,-3.52
2023-03-17T05:51:49.826Z,-3.33
2023-03-17T05:54:18.751Z,-3.35
2023-03-17T05:56:49.851Z,-3.31
2023-03-17T05:59:18.890Z,-3.08
2023-03-17T06:01:47.167Z,-2.97
2023-03-17T06:04:15.615Z,-2.95
2023-03-17T06:06:46.022Z,-2.83
2023-03-17T06:09:15.524Z,-2.64
2023-03-17T06:11:43.969Z,-2.49
2023-03-17T06:14:15.128Z,-2.51
2023-03-17T06:16:43.403Z,-2.34
2023-03-17T06:19:12.261Z,-2.27
2023-03-17T06:21:41.399Z,-2.13
2023-03-17T06:24:11.875Z,-1.96
2023-03-17T06:26:46.324Z,-1.76
2023-03-17T06:29:18.370Z,-1.69
2023-03-17T06:32:17.136Z,-1.59
2023-03-17T06:34:48.285Z,-1.30
2023-03-17T06:37:17.229Z,-1.20
2023-03-17T06:39:45.845Z,-0.94
2023-03-17T06:42:16.161Z,-0.62
2023-03-17T06:44:46.620Z,-0.45
2023-03-17T06:47:21.397Z,-0.25
2023-03-17T06:49:51.753Z,-0.15
2023-03-17T06:52:24.422Z,-0.13
2023-03-17T06:54:53.663Z,0.11
2023-03-17T06:57:21.881Z,0.31
2023-03-17T06:59:51.711Z,0.82
2023-03-17T07:02:20.271Z,1.33
2023-03-17T07:04:49.690Z,1.30
2023-03-17T07:07:18.251Z,1.55
2023-03-17T07:09:49.531Z,1.65
2023-03-17T07:12:18.723Z,1.81
2023-03-17T07:14:47.463Z,2.29
2023-03-17T07:17:18.632Z,3.04
2023-03-17T07:19:47.573Z,2.95
2023-03-17T07:22:19.022Z,3.18
2023-03-17T07:24:52.027Z,3.30
2023-03-17T07:27:25.269Z,3.93
2023-03-17T07:30:00.796Z,3.93
2023-03-17T07:32:35.557Z,4.04
2023-03-17T07:35:05.268Z,4.38
2023-03-17T07:37:34.967Z,4.73
2023-03-17T07:40:03.551Z,4.87
2023-03-17T07:42:31.947Z,4.98
2023-03-17T07:45:01.861Z,5.10
2023-03-17T07:47:32.645Z,5.15
2023-03-17T07:50:01.296Z,5.45
2023-03-17T07:52:30.118Z,5.65
2023-03-17T07:55:01.802Z,5.76
2023-03-17T07:57:30.098Z,5.86
2023-03-17T07:59:58.855Z,5.90
2023-03-17T08:02:27.524Z,6.00
2023-03-17T08:04:58.793Z,6.10
2023-03-17T08:07:27.315Z,6.25
2023-03-17T08:09:56.046Z,6.49
2023-03-17T08:12:25.703Z,6.38
2023-03-17T08:14:57.233Z,6.69
2023-03-17T08:17:27.351Z,6.79
2023-03-17T08:19:57.351Z,6.79
2023-03-17T08:22:26.692Z,6.90
2023-03-17T08:24:55.839Z,7.14
2023-03-17T08:27:24.165Z,7.07
2023-03-17T08:29:52.910Z,7.34
2023-03-17T08:32:21.367Z,7.41
2023-03-17T08:34:49.671Z,7.34
2023-03-17T08:37:19.297Z,7.08
2023-03-17T08:39:49.694Z,7.23
2023-03-17T08:42:18.401Z,7.38
2023-03-17T08:44:46.623Z,7.61
2023-03-17T08:47:15.019Z,7.56
2023-03-17T08:49:43.915Z,7.56
2023-03-17T08:52:13.113Z,7.79
2023-03-17T08:54:43.295Z,7.90
2023-03-17T08:57:12.673Z,8.14
2023-03-17T08:59:42.987Z,7.99
2023-03-17T09:02:13.849Z,7.81
2023-03-17T09:04:42.805Z,7.76
2023-03-17T09:07:11.438Z,8.17
2023-03-17T09:09:40.151Z,8.04
2023-03-17T09:12:10.207Z,7.78
2023-03-17T09:14:43.987Z,8.02
2023-03-17T09:17:15.802Z,8.14
2023-03-17T09:19:45.007Z,8.23
2023-03-17T09:22:15.261Z,8.02
2023-03-17T09:24:44.250Z,8.41
2023-03-17T09:27:15.159Z,7.94
2023-03-17T09:29:44.041Z,8.44
2023-03-17T09:32:12.795Z,8.65
2023-03-17T09:34:56.293Z,8.64
2023-03-17T09:37:24.754Z,8.36
2023-03-17T09:39:53.170Z,8.55
2023-03-17T09:42:37.649Z,8.95
2023-03-17T09:45:22.603Z,8.73
2023-03-17T09:48:12.138Z,9.50
2023-03-17T09:50:46.585Z,9.20
2023-03-17T09:53:19.734Z,9.20
2023-03-17T09:55:52.871Z,8.92
2023-03-17T09:58:32.048Z,9.44
2023-03-17T10:01:01.016Z,9.50
2023-03-17T10:03:30.824Z,9.48
2023-03-17T10:06:13.471Z,9.38
2023-03-17T10:08:49.870Z,9.34
2023-03-17T10:11:27.007Z,9.71
2023-03-17T10:14:01.848Z,9.52
2023-03-17T10:16:43.755Z,9.99
2023-03-17T10:19:22.493Z,9.59
2023-03-17T10:21:55.162Z,9.81
2023-03-17T10:24:25.785Z,9.77
2023-03-17T10:27:00.206Z,9.89
2023-03-17T10:29:31.526Z,9.94
2023-03-17T10:32:00.142Z,10.19
2023-03-17T10:34:31.113Z,9.26
2023-03-17T10:37:05.493Z,9.82
2023-03-17T10:39:42.782Z,10.17
2023-03-17T10:42:15.383Z,10.08
2023-03-17T10:44:51.253Z,10.30
2023-03-17T10:47:32.879Z,10.56
2023-03-17T10:50:05.695Z,10.15
2023-03-17T10:52:40.811Z,10.40
2023-03-17T10:55:13.509Z,10.49
2023-03-17T10:57:49.570Z,10.37
2023-03-17T11:00:22.250Z,10.71
2023-03-17T11:02:57.395Z,10.44
2023-03-17T11:05:27.755Z,10.82
2023-03-17T11:07:59.742Z,10.75
2023-03-17T11:10:30.308Z,10.40
2023-03-17T11:13:01.868Z,10.44
2023-03-17T11:15:37.063Z,10.78
2023-03-17T11:18:13.323Z,10.63
2023-03-17T11:20:48.622Z,10.78
2023-03-17T11:23:39.906Z,10.49
2023-03-17T11:26:34.951Z,10.73
2023-03-17T11:29:16.686Z,10.63
2023-03-17T11:31:54.013Z,10.77
2023-03-17T11:34:29.316Z,10.67
2023-03-17T11:37:07.245Z,10.97
2023-03-17T11:39:47.542Z,11.07
2023-03-17T11:42:22.610Z,10.94
2023-03-17T11:45:11.597Z,10.77
2023-03-17T11:47:48.455Z,10.77
2023-03-17T11:50:29.266Z,10.61
2023-03-17T11:53:15.658Z,10.95
2023-03-17T11:55:47.761Z,10.94
2023-03-17T11:58:27.997Z,11.40
2023-03-17T12:01:00.438Z,10.71
2023-03-17T12:03:39.203Z,11.05
2023-03-17T12:06:15.473Z,11.04
2023-03-17T12:08:48.047Z,10.37
2023-03-17T12:11:22.387Z,10.17
2023-03-17T12:14:03.546Z,10.52
2023-03-17T12:16:38.750Z,10.88
2023-03-17T12:19:19.418Z,11.11
2023-03-17T12:21:54.375Z,11.52
2023-03-17T12:24:29.066Z,11.57
2023-03-17T12:27:00.758Z,11.29
2023-03-17T12:29:47.801Z,11.22
2023-03-17T12:32:21.920Z,11.26
2023-03-17T12:34:57.080Z,11.23
2023-03-17T12:37:30.115Z,11.80
2023-03-17T12:40:06.694Z,12.31
2023-03-17T12:42:53.703Z,12.48
2023-03-17T12:45:47.885Z,12.05
2023-03-17T12:48:43.129Z,12.34
2023-03-17T12:51:40.446Z,12.35
2023-03-17T12:54:15.378Z,12.45
2023-03-17T12:56:47.749Z,12.69
2023-03-17T12:59:19.847Z,12.57
2023-03-17T13:01:55.529Z,13.37
2023-03-17T13:04:27.711Z,12.94
2023-03-17T13:07:03.348Z,13.42
2023-03-17T13:09:39.609Z,12.72
2023-03-17T13:12:28.746Z,13.06
2023-03-17T13:15:02.451Z,12.66
2023-03-17T13:17:35.665Z,12.45
2023-03-17T13:20:17.723Z,12.66
2023-03-17T13:23:13.811Z,12.70
2023-03-17T13:25:53.519Z,12.73
2023-03-17T13:28:29.009Z,11.46
2023-03-17T13:31:09.890Z,10.95
2023-03-17T13:33:44.745Z,11.18
2023-03-17T13:36:39.205Z,11.01
2023-03-17T13:39:55.550Z,11.11
2023-03-17T13:42:58.476Z,10.91
2023-03-17T13:45:38.721Z,10.98
2023-03-17T13:48:32.148Z,10.78
2023-03-17T13:51:04.498Z,10.80
2023-03-17T13:53:39.359Z,10.63
2023-03-17T13:56:15.663Z,10.95
2023-03-17T13:59:13.145Z,10.87
2023-03-17T14:01:47.484Z,10.77
2023-03-17T14:04:26.351Z,10.63
2023-03-17T14:06:58.054Z,10.68
2023-03-17T14:09:37.001Z,10.98
2023-03-17T14:12:12.560Z,11.00
2023-03-17T14:14:49.443Z,10.77
2023-03-17T14:17:26.901Z,10.64
2023-03-17T14:20:08.378Z,10.61
2023-03-17T14:22:46.033Z,10.59
2023-03-17T14:25:18.340Z,10.61
2023-03-17T14:27:49.891Z,10.70
2023-03-17T14:30:25.520Z,10.60
2023-03-17T14:33:03.430Z,10.42
2023-03-17T14:35:33.776Z,10.54
2023-03-17T14:38:04.493Z,10.53
2023-03-17T14:40:37.076Z,10.52
2023-03-17T14:43:05.977Z,10.63
2023-03-17T14:45:48.668Z,10.75
2023-03-17T14:48:23.454Z,10.84
2023-03-17T14:50:55.897Z,10.94
2023-03-17T14:53:25.353Z,10.56
2023-03-17T14:55:54.899Z,10.65
2023-03-17T14:58:26.468Z,10.68
2023-03-17T15:00:59.113Z,10.49
2023-03-17T15:03:33.237Z,10.44
2023-03-17T15:06:07.536Z,10.34
2023-03-17T15:08:46.408Z,10.32
2023-03-17T15:11:24.528Z,10.33
2023-03-17T15:13:58.448Z,10.20
2023-03-17T15:16:30.560Z,10.33
2023-03-17T15:19:18.999Z,10.30
2023-03-17T15:21:49.279Z,10.23
2023-03-17T15:24:25.793Z,10.22
2023-03-17T15:27:01.487Z,10.25
2023-03-17T15:29:30.599Z,10.20
2023-03-17T15:32:08.049Z,10.15
2023-03-17T15:34:37.204Z,9.99
2023-03-17T15:37:07.773Z,9.84
2023-03-17T15:39:36.646Z,9.75
2023-03-17T15:42:06.006Z,9.74
2023-03-17T15:44:35.162Z,9.79
2023-03-17T15:47:05.440Z,9.67
2023-03-17T15:49:35.076Z,9.59
2023-03-17T15:52:03.284Z,9.58
2023-03-17T15:54:34.329Z,9.46
2023-03-17T15:57:02.863Z,9.36
2023-03-17T15:59:32.304Z,9.30
2023-03-17T16:02:01.852Z,9.27
2023-03-17T16:04:32.726Z,9.17
2023-03-17T16:07:01.368Z,9.07
2023-03-17T16:09:29.566Z,9.00
2023-03-17T16:11:59.212Z,8.88
2023-03-17T16:14:29.140Z,8.79
2023-03-17T16:16:58.826Z,8.73
2023-03-17T16:19:27.834Z,8.61
2023-03-17T16:21:58.830Z,8.55
2023-03-17T16:24:29.696Z,8.45
2023-03-17T16:27:03.210Z,8.37
2023-03-17T16:29:32.004Z,8.19
2023-03-17T16:32:01.855Z,8.16
2023-03-17T16:34:32.789Z,8.13
2023-03-17T16:37:03.360Z,8.19
2023-03-17T16:39:34.409Z,7.89
2023-03-17T16:42:04.150Z,7.79
2023-03-17T16:44:33.639Z,7.65
2023-03-17T16:47:02.127Z,7.55
2023-03-17T16:49:33.513Z,7.40
2023-03-17T16:52:06.867Z,7.34
2023-03-17T16:54:38.080Z,7.27
2023-03-17T16:57:09.325Z,7.21
2023-03-17T16:59:41.553Z,7.11
2023-03-17T17:02:18.005Z,7.00
2023-03-17T17:04:46.337Z,6.94
2023-03-17T17:07:16.093Z,6.83
2023-03-17T17:09:48.278Z,6.77
2023-03-17T17:12:17.742Z,6.77
2023-03-17T17:14:46.275Z,6.71
2023-03-17T17:17:15.525Z,6.65
2023-03-17T17:19:44.720Z,6.71
2023-03-17T17:22:13.535Z,6.62
2023-03-17T17:24:43.377Z,6.55
2023-03-17T17:27:13.130Z,6.45
2023-03-17T17:29:42.149Z,6.45
2023-03-17T17:32:14.982Z,6.35
2023-03-17T17:34:43.163Z,6.31
2023-03-17T17:37:12.567Z,6.16
2023-03-17T17:39:42.890Z,6.11
2023-03-17T17:42:12.288Z,6.00
2023-03-17T17:44:40.505Z,5.98
2023-03-17T17:47:09.141Z,5.90
2023-03-17T17:49:38.122Z,5.81
2023-03-17T17:52:07.167Z,5.79
2023-03-17T17:54:35.658Z,5.71
2023-03-17T17:57:06.116Z,5.63
2023-03-17T17:59:35.162Z,5.49
2023-03-17T18:02:04.115Z,5.42
2023-03-17T18:04:32.619Z,5.43
2023-03-17T18:07:01.518Z,5.36
2023-03-17T18:09:38.069Z,5.39
2023-03-17T18:12:08.838Z,5.32
2023-03-17T18:14:37.690Z,5.29
2023-03-17T18:17:07.014Z,5.27
2023-03-17T18:19:36.393Z,5.12
2023-03-17T18:22:04.804Z,5.00
2023-03-17T18:24:34.393Z,4.84
2023-03-17T18:27:05.562Z,4.70
2023-03-17T18:29:35.811Z,4.54
2023-03-17T18:32:05.321Z,4.43
2023-03-17T18:34:39.353Z,4.35
2023-03-17T18:37:09.076Z,4.42
2023-03-17T18:39:41.120Z,4.22
2023-03-17T18:42:11.654Z,4.11
2023-03-17T18:44:43.194Z,3.97
2023-03-17T18:47:13.399Z,3.85
2023-03-17T18:49:42.365Z,3.78
2023-03-17T18:52:12.284Z,3.69
2023-03-17T18:54:41.527Z,3.64
2023-03-17T18:57:10.174Z,3.54
2023-03-17T18:59:40.717Z,3.54
2023-03-17T19:02:11.676Z,3.49
2023-03-17T19:04:49.601Z,3.40
2023-03-17T19:07:20.110Z,3.33
2023-03-17T19:09:48.648Z,3.25
2023-03-17T19:12:17.152Z,3.36
2023-03-17T19:14:45.891Z,3.22
2023-03-17T19:17:15.940Z,3.09
2023-03-17T19:19:44.242Z,2.97
2023-03-17T19:22:12.890Z,2.87
2023-03-17T19:24:42.799Z,2.84
2023-03-17T19:27:11.026Z,2.74
2023-03-17T19:29:40.177Z,2.67
2023-03-17T19:32:09.206Z,2.58
2023-03-17T19:34:40.530Z,2.54
2023-03-17T19:37:09.724Z,2.50
2023-03-17T19:39:38.346Z,2.43
2023-03-17T19:42:07.554Z,2.41
2023-03-17T19:44:36.565Z,2.46
2023-03-17T19:47:08.373Z,2.43
2023-03-17T19:49:38.795Z,2.40
2023-03-17T19:52:07.866Z,2.41
2023-03-17T19:54:37.937Z,2.43
2023-03-17T19:57:07.142Z,2.46
2023-03-17T19:59:36.127Z,2.39
2023-03-17T20:02:04.931Z,2.43
2023-03-17T20:04:33.688Z,2.33
2023-03-17T20:07:03.582Z,2.34
2023-03-17T20:09:32.094Z,2.33
2023-03-17T20:12:02.044Z,2.47
2023-03-17T20:14:30.502Z,2.39
2023-03-17T20:16:59.558Z,2.27
2023-03-17T20:19:32.943Z,2.18
2023-03-17T20:22:04.309Z,2.19
2023-03-17T20:24:34.460Z,2.09
2023-03-17T20:27:03.574Z,2.08
2023-03-17T20:29:32.786Z,2.06
2023-03-17T20:32:02.167Z,1.98
2023-03-17T20:34:34.873Z,1.88
2023-03-17T20:37:05.790Z,1.94
2023-03-17T20:39:34.560Z,1.88
2023-03-17T20:42:04.468Z,1.91
2023-03-17T20:44:34.437Z,1.86
2023-03-17T20:47:05.608Z,1.89
2023-03-17T20:49:34.961Z,1.79
2023-03-17T20:52:08.436Z,1.75
2023-03-17T20:54:39.237Z,1.77
2023-03-17T20:57:09.334Z,1.75
2023-03-17T20:59:39.804Z,1.74
2023-03-17T21:02:14.928Z,1.83
2023-03-17T21:04:47.188Z,1.79
2023-03-17T21:07:17.888Z,1.79
2023-03-17T21:09:48.009Z,1.77
2023-03-17T21:12:22.346Z,1.72
2023-03-17T21:14:53.371Z,1.75
2023-03-17T21:17:22.960Z,1.67
2023-03-17T21:19:51.758Z,1.78
2023-03-17T21:22:22.795Z,1.83
2023-03-17T21:24:54.143Z,1.82
2023-03-17T21:27:23.897Z,1.75
2023-03-17T21:29:53.131Z,1.78
2023-03-17T21:32:24.189Z,1.72
2023-03-17T21:34:54.384Z,1.78
2023-03-17T21:37:26.292Z,1.82
2023-03-17T21:39:55.097Z,1.72
2023-03-17T21:42:25.338Z,1.71
2023-03-17T21:44:55.341Z,1.65
2023-03-17T21:47:25.065Z,1.67
2023-03-17T21:49:55.004Z,1.65
2023-03-17T21:52:25.394Z,1.65
2023-03-17T21:54:54.739Z,1.64
2023-03-17T21:57:26.200Z,1.58
2023-03-17T21:59:55.085Z,1.65
2023-03-17T22:02:32.716Z,1.57
2023-03-17T22:05:01.544Z,1.58
2023-03-17T22:07:38.188Z,1.52
2023-03-17T22:10:08.649Z,1.52
2023-03-17T22:12:37.785Z,1.55
2023-03-17T22:15:10.556Z,1.55
2023-03-17T22:17:39.728Z,1.62
2023-03-17T22:20:10.928Z,1.52
2023-03-17T22:22:41.207Z,1.57
2023-03-17T22:25:10.043Z,1.46
2023-03-17T22:27:38.346Z,1.47
2023-03-17T22:30:08.972Z,1.37
2023-03-17T22:32:38.818Z,1.41
2023-03-17T22:35:07.655Z,1.39
2023-03-17T22:37:37.525Z,1.31
2023-03-17T22:40:09.898Z,1.37
2023-03-17T22:42:38.253Z,1.33
2023-03-17T22:45:07.826Z,1.34
2023-03-17T22:47:39.584Z,1.24
2023-03-17T22:50:10.530Z,1.22
2023-03-17T22:52:40.866Z,1.23
2023-03-17T22:55:14.001Z,1.22
2023-03-17T22:57:43.089Z,1.26
2023-03-17T23:00:18.369Z,1.27
2023-03-17T23:02:49.298Z,1.24
2023-03-17T23:05:22.049Z,1.22
2023-03-17T23:07:52.126Z,1.22
2023-03-17T23:10:26.698Z,1.27
2023-03-17T23:12:57.317Z,1.29
2023-03-17T23:15:28.669Z,1.23
2023-03-17T23:17:59.290Z,1.22
2023-03-17T23:20:30.069Z,1.24
2023-03-17T23:23:01.700Z,1.23
2023-03-17T23:25:34.597Z,1.20
2023-03-17T23:28:05.088Z,1.27
2023-03-17T23:30:34.311Z,1.29
2023-03-17T23:33:07.681Z,1.26
2023-03-17T23:35:41.425Z,1.27
2023-03-17T23:38:11.227Z,1.20
2023-03-17T23:40:41.328Z,1.19
2023-03-17T23:43:09.568Z,1.13
2023-03-17T23:45:39.825Z,1.13
2023-03-17T23:48:12.924Z,1.06
2023-03-17T23:50:42.492Z,1.10
2023-03-17T23:53:13.646Z,1.06
2023-03-17T23:55:45.464Z,1.02
2023-03-17T23:58:15.953Z,1.02
